createdAt,value
2019-01-27T00:01:11.896Z,6.85
2019-01-27T00:03:39.138Z,5.90
2019-01-27T00:06:06.305Z,5.78
2019-01-27T00:08:33.881Z,6.08
2019-01-27T00:11:00.978Z,4.67
2019-01-27T00:13:28.040Z,5.30
2019-01-27T00:15:54.957Z,5.58
2019-01-27T00:18:21.960Z,4.30
2019-01-27T00:20:49.060Z,4.60
2019-01-27T00:23:16.203Z,4.05
2019-01-27T00:25:43.238Z,4.67
2019-01-27T00:28:10.145Z,4.78
2019-01-27T00:30:37.199Z,4.50
2019-01-27T00:33:04.202Z,3.98
2019-01-27T00:35:31.205Z,4.40
2019-01-27T00:37:58.225Z,5.45
2019-01-27T00:40:25.213Z,5.20
2019-01-27T00:42:52.131Z,4.83
2019-01-27T00:45:19.650Z,5.35
2019-01-27T00:47:46.698Z,4.72
2019-01-27T00:50:14.964Z,5.35
2019-01-27T00:52:41.973Z,5.20
2019-01-27T00:55:12.146Z,5.58
2019-01-27T00:57:39.102Z,5.90
2019-01-27T01:00:08.252Z,5.60
2019-01-27T01:02:35.401Z,5.08
2019-01-27T01:05:03.012Z,4.65
2019-01-27T01:07:29.952Z,4.55
2019-01-27T01:09:57.019Z,4.72
2019-01-27T01:12:24.234Z,4.08
2019-01-27T01:14:51.679Z,5.00
2019-01-27T01:17:18.831Z,4.55
2019-01-27T01:19:46.174Z,4.33
2019-01-27T01:22:13.305Z,4.35
2019-01-27T01:24:40.203Z,4.30
2019-01-27T01:27:08.995Z,4.90
2019-01-27T01:29:36.061Z,7.70
2019-01-27T01:32:03.099Z,4.40
2019-01-27T01:34:30.130Z,4.35
2019-01-27T01:36:57.125Z,4.25
2019-01-27T01:39:24.219Z,5.00
2019-01-27T01:41:51.270Z,4.58
2019-01-27T01:44:18.496Z,4.33
2019-01-27T01:46:45.452Z,4.50
2019-01-27T01:49:12.400Z,6.28
2019-01-27T01:51:39.381Z,4.53
2019-01-27T01:54:06.333Z,4.03
2019-01-27T01:56:33.358Z,4.67
2019-01-27T01:59:00.529Z,5.55
2019-01-27T02:01:27.565Z,5.37
2019-01-27T02:03:55.648Z,4.25
2019-01-27T02:06:22.715Z,4.47
2019-01-27T02:08:49.618Z,3.42
2019-01-27T02:11:16.705Z,4.30
2019-01-27T02:13:43.714Z,4.58
2019-01-27T02:16:10.712Z,4.37
2019-01-27T02:18:38.805Z,5.28
2019-01-27T02:21:06.722Z,4.20
2019-01-27T02:23:33.986Z,4.78
2019-01-27T02:26:00.957Z,4.53
2019-01-27T02:28:30.821Z,4.20
2019-01-27T02:30:57.899Z,4.28
2019-01-27T02:33:24.854Z,3.58
2019-01-27T02:35:53.720Z,4.45
2019-01-27T02:38:20.604Z,3.77
2019-01-27T02:40:49.493Z,4.15
2019-01-27T02:43:16.507Z,4.47
2019-01-27T02:45:43.510Z,3.70
2019-01-27T02:48:10.444Z,4.50
2019-01-27T02:50:37.516Z,4.80
2019-01-27T02:53:06.254Z,4.95
2019-01-27T02:55:33.246Z,4.53
2019-01-27T02:58:00.245Z,6.67
2019-01-27T03:00:27.178Z,4.40
2019-01-27T03:02:54.242Z,4.65
2019-01-27T03:05:23.151Z,4.10
2019-01-27T03:07:51.305Z,4.35
2019-01-27T03:10:18.386Z,5.05
2019-01-27T03:12:45.369Z,4.50
2019-01-27T03:15:14.259Z,3.75
2019-01-27T03:17:41.255Z,4.25
2019-01-27T03:20:09.001Z,4.15
2019-01-27T03:22:35.899Z,4.20
2019-01-27T03:25:03.814Z,4.10
2019-01-27T03:27:30.917Z,5.12
2019-01-27T03:29:58.010Z,4.35
2019-01-27T03:32:25.071Z,4.00
2019-01-27T03:34:52.093Z,4.35
2019-01-27T03:37:19.093Z,4.60
2019-01-27T03:39:46.222Z,4.60
2019-01-27T03:42:13.199Z,6.65
2019-01-27T03:44:40.125Z,4.70
2019-01-27T03:47:07.153Z,4.05
2019-01-27T03:49:34.166Z,8.25
2019-01-27T03:52:01.193Z,4.65
2019-01-27T03:54:28.139Z,5.42
2019-01-27T03:56:55.020Z,4.42
2019-01-27T03:59:22.073Z,7.90
2019-01-27T04:01:48.986Z,2.52
2019-01-27T04:04:16.051Z,2.83
2019-01-27T04:06:43.282Z,3.10
2019-01-27T04:09:11.778Z,2.65
2019-01-27T04:11:40.419Z,2.90
2019-01-27T04:14:07.372Z,3.22
2019-01-27T04:16:34.764Z,2.47
2019-01-27T04:19:01.875Z,2.67
2019-01-27T04:21:28.906Z,2.62
2019-01-27T04:23:55.843Z,2.35
2019-01-27T04:26:23.111Z,2.40
2019-01-27T04:28:50.212Z,2.67
2019-01-27T04:31:17.188Z,2.30
2019-01-27T04:33:44.281Z,2.30
2019-01-27T04:36:11.222Z,2.30
2019-01-27T04:38:38.151Z,2.62
2019-01-27T04:41:05.106Z,1.90
2019-01-27T04:43:32.133Z,2.10
2019-01-27T04:45:59.024Z,2.30
2019-01-27T04:48:25.992Z,2.42
2019-01-27T04:50:52.972Z,1.72
2019-01-27T04:53:21.802Z,3.05
2019-01-27T04:55:48.762Z,1.85
2019-01-27T04:58:15.811Z,3.05
2019-01-27T05:00:42.986Z,2.10
2019-01-27T05:03:17.929Z,2.20
2019-01-27T05:05:44.913Z,2.62
2019-01-27T05:08:11.890Z,1.75
2019-01-27T05:10:39.028Z,1.50
2019-01-27T05:13:07.736Z,1.72
2019-01-27T05:15:34.802Z,1.45
2019-01-27T05:18:01.698Z,1.60
2019-01-27T05:20:28.636Z,1.65
2019-01-27T05:22:55.621Z,1.60
2019-01-27T05:25:22.761Z,1.90
2019-01-27T05:27:49.673Z,1.52
2019-01-27T05:30:18.180Z,1.80
2019-01-27T05:32:45.340Z,1.42
2019-01-27T05:35:12.590Z,1.40
2019-01-27T05:37:39.604Z,1.57
2019-01-27T05:40:08.224Z,1.85
2019-01-27T05:42:35.175Z,1.62
2019-01-27T05:45:02.714Z,1.62
2019-01-27T05:47:29.645Z,3.30
2019-01-27T05:49:56.643Z,2.12
2019-01-27T05:52:23.866Z,1.90
2019-01-27T05:54:50.821Z,1.40
2019-01-27T05:57:17.957Z,1.60
2019-01-27T05:59:44.950Z,1.80
2019-01-27T06:02:11.850Z,1.50
2019-01-27T06:04:38.884Z,1.60
2019-01-27T06:07:05.873Z,2.27
2019-01-27T06:09:32.949Z,2.02
2019-01-27T06:11:59.995Z,1.80
2019-01-27T06:14:28.007Z,1.65
2019-01-27T06:16:55.157Z,2.42
2019-01-27T06:19:22.157Z,1.60
2019-01-27T06:21:49.137Z,1.90
2019-01-27T06:24:16.429Z,1.70
2019-01-27T06:26:43.446Z,1.70
2019-01-27T06:29:10.485Z,1.50
2019-01-27T06:31:37.397Z,1.80
2019-01-27T06:34:04.546Z,2.35
2019-01-27T06:36:31.826Z,2.12
2019-01-27T06:38:58.821Z,1.72
2019-01-27T06:41:25.826Z,1.70
2019-01-27T06:43:53.243Z,1.40
2019-01-27T06:46:20.331Z,1.90
2019-01-27T06:48:47.325Z,1.62
2019-01-27T06:51:14.342Z,1.77
2019-01-27T06:53:41.297Z,2.17
2019-01-27T06:56:08.300Z,2.08
2019-01-27T06:58:54.211Z,1.90
2019-01-27T07:01:24.029Z,2.75
2019-01-27T07:03:53.312Z,1.90
2019-01-27T07:06:22.421Z,2.10
2019-01-27T07:08:51.295Z,2.30
2019-01-27T07:11:29.574Z,2.40
2019-01-27T07:14:10.277Z,1.75
2019-01-27T07:16:42.030Z,1.82
2019-01-27T07:19:14.054Z,2.25
2019-01-27T07:21:59.644Z,1.77
2019-01-27T07:24:34.764Z,2.83
2019-01-27T07:27:10.119Z,1.70
2019-01-27T07:29:54.412Z,1.70
2019-01-27T07:32:35.253Z,1.62
2019-01-27T07:35:05.152Z,2.60
2019-01-27T07:37:34.367Z,1.70
2019-01-27T07:40:03.304Z,1.85
2019-01-27T07:42:44.265Z,2.10
2019-01-27T07:45:14.376Z,1.80
2019-01-27T07:47:46.287Z,1.82
2019-01-27T07:50:21.435Z,1.55
2019-01-27T07:52:50.406Z,1.67
2019-01-27T07:55:19.785Z,1.50
2019-01-27T07:57:51.564Z,1.65
2019-01-27T08:00:24.476Z,1.60
2019-01-27T08:02:56.149Z,1.37
2019-01-27T08:05:25.338Z,1.67
2019-01-27T08:08:10.743Z,2.02
2019-01-27T08:10:48.828Z,1.57
2019-01-27T08:13:17.700Z,1.62
2019-01-27T08:16:01.678Z,1.55
2019-01-27T08:18:30.755Z,1.82
2019-01-27T08:21:16.477Z,1.75
2019-01-27T08:23:45.430Z,2.00
2019-01-27T08:26:20.490Z,1.60
2019-01-27T08:28:49.445Z,2.87
2019-01-27T08:31:21.450Z,1.72
2019-01-27T08:34:02.678Z,2.70
2019-01-27T08:36:31.461Z,1.30
2019-01-27T08:39:12.414Z,1.60
2019-01-27T08:41:59.397Z,1.72
2019-01-27T08:44:34.437Z,2.08
2019-01-27T08:47:01.622Z,1.60
2019-01-27T08:49:28.589Z,1.62
2019-01-27T08:51:55.628Z,2.27
2019-01-27T08:54:23.702Z,1.47
2019-01-27T08:56:50.625Z,2.40
2019-01-27T08:59:17.774Z,2.15
2019-01-27T09:01:49.383Z,4.60
2019-01-27T09:04:24.533Z,5.58
2019-01-27T09:06:56.268Z,2.60
2019-01-27T09:09:25.347Z,2.08
2019-01-27T09:12:00.619Z,3.42
2019-01-27T09:14:32.326Z,2.00
2019-01-27T09:17:04.245Z,9.00
2019-01-27T09:19:38.668Z,2.12
2019-01-27T09:22:16.793Z,2.20
2019-01-27T09:24:48.673Z,2.20
2019-01-27T09:27:18.352Z,2.25
2019-01-27T09:29:49.117Z,2.05
2019-01-27T09:32:18.081Z,2.10
2019-01-27T09:34:46.943Z,1.70
2019-01-27T09:37:18.621Z,1.70
2019-01-27T09:39:47.650Z,2.10
2019-01-27T09:42:16.649Z,2.47
2019-01-27T09:44:51.790Z,1.40
2019-01-27T09:47:32.554Z,1.75
2019-01-27T09:50:01.568Z,1.15
2019-01-27T09:52:30.551Z,1.27
2019-01-27T09:54:59.522Z,1.52
2019-01-27T09:57:31.747Z,1.20
2019-01-27T10:00:00.898Z,1.47
2019-01-27T10:02:34.770Z,1.10
2019-01-27T10:05:09.955Z,1.40
2019-01-27T10:07:45.017Z,1.65
2019-01-27T10:10:31.556Z,2.37
2019-01-27T10:13:03.167Z,1.90
2019-01-27T10:15:41.939Z,1.95
2019-01-27T10:18:13.545Z,1.45
2019-01-27T10:20:54.269Z,2.52
2019-01-27T10:23:23.218Z,3.25
2019-01-27T10:25:52.130Z,1.85
2019-01-27T10:28:21.001Z,2.72
2019-01-27T10:30:56.230Z,1.65
2019-01-27T10:33:25.194Z,6.28
2019-01-27T10:36:10.797Z,1.30
2019-01-27T10:38:45.905Z,1.20
2019-01-27T10:41:14.840Z,1.25
2019-01-27T10:43:43.819Z,1.40
2019-01-27T10:46:22.036Z,1.30
2019-01-27T10:48:53.917Z,1.42
2019-01-27T10:51:38.124Z,2.00
2019-01-27T10:54:12.880Z,1.50
2019-01-27T10:56:44.611Z,1.85
2019-01-27T10:59:31.959Z,2.95
2019-01-27T11:02:07.121Z,1.20
2019-01-27T11:04:52.730Z,1.62
2019-01-27T11:07:27.439Z,1.55
2019-01-27T11:10:05.593Z,1.20
2019-01-27T11:12:49.565Z,1.20
2019-01-27T11:15:18.649Z,1.32
2019-01-27T11:17:47.472Z,1.20
2019-01-27T11:20:25.669Z,1.75
2019-01-27T11:22:54.554Z,1.25
2019-01-27T11:25:23.641Z,3.65
2019-01-27T11:27:52.674Z,1.95
2019-01-27T11:30:22.446Z,1.65
2019-01-27T11:32:57.489Z,1.70
2019-01-27T11:35:44.439Z,1.92
2019-01-27T11:38:16.144Z,1.98
2019-01-27T11:41:00.001Z,3.45
2019-01-27T11:43:32.165Z,2.37
2019-01-27T11:46:13.005Z,1.70
2019-01-27T11:48:47.609Z,4.92
2019-01-27T11:51:16.452Z,1.80
2019-01-27T11:53:43.432Z,2.37
2019-01-27T11:56:10.408Z,1.95
2019-01-27T11:58:37.449Z,1.45
2019-01-27T12:01:05.516Z,2.50
2019-01-27T12:03:32.507Z,1.90
2019-01-27T12:05:59.460Z,2.33
2019-01-27T12:08:27.995Z,1.62
2019-01-27T12:10:55.140Z,2.65
2019-01-27T12:13:22.161Z,3.35
2019-01-27T12:15:49.164Z,1.67
2019-01-27T12:18:16.360Z,4.80
2019-01-27T12:20:43.567Z,1.60
2019-01-27T12:23:10.473Z,2.62
2019-01-27T12:25:39.509Z,2.95
2019-01-27T12:28:06.596Z,4.05
2019-01-27T12:30:33.568Z,4.85
2019-01-27T12:33:00.638Z,2.75
2019-01-27T12:35:27.654Z,1.35
2019-01-27T12:37:54.532Z,4.10
2019-01-27T12:40:22.189Z,1.30
2019-01-27T12:42:49.183Z,1.57
2019-01-27T12:45:16.080Z,2.00
2019-01-27T12:47:43.140Z,1.30
2019-01-27T12:50:11.860Z,1.65
2019-01-27T12:52:38.777Z,2.35
2019-01-27T12:55:06.936Z,2.05
2019-01-27T12:57:34.025Z,2.58
2019-01-27T13:00:01.110Z,1.62
2019-01-27T13:02:28.212Z,1.42
2019-01-27T13:04:55.245Z,1.32
2019-01-27T13:07:22.304Z,1.30
2019-01-27T13:09:49.376Z,1.62
2019-01-27T13:12:16.344Z,2.30
2019-01-27T13:14:43.332Z,1.30
2019-01-27T13:17:10.342Z,2.35
2019-01-27T13:19:37.396Z,2.75
2019-01-27T13:22:04.297Z,1.87
2019-01-27T13:24:31.369Z,1.67
2019-01-27T13:26:58.342Z,1.75
2019-01-27T13:29:25.466Z,3.33
2019-01-27T13:31:52.454Z,1.65
2019-01-27T13:34:19.486Z,1.70
2019-01-27T13:36:46.612Z,1.50
2019-01-27T13:39:13.940Z,3.05
2019-01-27T13:41:41.141Z,2.27
2019-01-27T13:44:08.209Z,1.72
2019-01-27T13:46:35.232Z,1.87
2019-01-27T13:49:02.345Z,1.87
2019-01-27T13:51:29.318Z,2.00
2019-01-27T13:53:57.263Z,1.72
2019-01-27T13:56:24.353Z,1.80
2019-01-27T13:58:51.444Z,1.95
2019-01-27T14:01:18.631Z,2.30
2019-01-27T14:03:45.665Z,1.92
2019-01-27T14:06:12.784Z,1.60
2019-01-27T14:08:39.882Z,2.17
2019-01-27T14:11:06.911Z,1.62
2019-01-27T14:13:33.896Z,1.65
2019-01-27T14:16:01.052Z,2.45
2019-01-27T14:18:28.194Z,2.30
2019-01-27T14:20:55.188Z,2.62
2019-01-27T14:23:22.224Z,1.95
2019-01-27T14:25:52.528Z,3.08
2019-01-27T14:28:19.928Z,4.12
2019-01-27T14:30:47.000Z,1.65
2019-01-27T14:33:14.177Z,2.95
2019-01-27T14:35:41.439Z,1.95
2019-01-27T14:38:08.461Z,1.75
2019-01-27T14:40:35.521Z,1.70
2019-01-27T14:43:03.192Z,1.80
2019-01-27T14:45:31.521Z,2.35
2019-01-27T14:47:59.029Z,2.22
2019-01-27T14:50:28.859Z,1.70
2019-01-27T14:52:55.989Z,2.00
2019-01-27T14:55:23.053Z,1.55
2019-01-27T14:57:50.202Z,1.55
2019-01-27T15:00:23.793Z,1.90
2019-01-27T15:02:50.728Z,1.55
2019-01-27T15:05:17.911Z,1.90
2019-01-27T15:07:45.012Z,2.95
2019-01-27T15:10:14.999Z,2.00
2019-01-27T15:12:42.090Z,2.85
2019-01-27T15:15:12.264Z,1.80
2019-01-27T15:17:39.274Z,3.05
2019-01-27T15:20:13.098Z,1.80
2019-01-27T15:22:40.339Z,1.50
2019-01-27T15:25:07.681Z,1.65
2019-01-27T15:27:34.678Z,3.10
2019-01-27T15:30:03.513Z,1.42
2019-01-27T15:32:30.625Z,2.22
2019-01-27T15:34:57.651Z,1.22
2019-01-27T15:37:24.654Z,1.50
2019-01-27T15:39:51.769Z,1.72
2019-01-27T15:42:18.899Z,1.45
2019-01-27T15:44:45.845Z,1.72
2019-01-27T15:47:15.415Z,2.22
2019-01-27T15:49:42.970Z,1.92
2019-01-27T15:52:09.956Z,1.72
2019-01-27T15:54:37.050Z,1.42
2019-01-27T15:57:04.197Z,1.40
2019-01-27T15:59:33.369Z,1.20
2019-01-27T16:02:00.413Z,1.52
2019-01-27T16:04:27.689Z,1.47
2019-01-27T16:06:54.775Z,1.45
2019-01-27T16:09:21.922Z,1.30
2019-01-27T16:11:49.224Z,1.55
2019-01-27T16:14:16.264Z,2.55
2019-01-27T16:16:43.322Z,2.02
2019-01-27T16:19:10.440Z,2.47
2019-01-27T16:21:37.429Z,1.65
2019-01-27T16:24:06.373Z,2.85
2019-01-27T16:26:33.431Z,1.70
2019-01-27T16:29:00.387Z,1.80
2019-01-27T16:31:38.315Z,1.80
2019-01-27T16:34:07.125Z,1.75
2019-01-27T16:36:34.144Z,2.47
2019-01-27T16:39:01.112Z,2.20
2019-01-27T16:41:28.091Z,1.90
2019-01-27T16:43:55.158Z,1.80
2019-01-27T16:46:22.162Z,1.67
2019-01-27T16:48:49.354Z,2.25
2019-01-27T16:51:16.432Z,1.42
2019-01-27T16:53:43.446Z,2.45
2019-01-27T16:56:10.674Z,1.80
2019-01-27T16:58:37.731Z,2.30
2019-01-27T17:01:05.268Z,1.60
2019-01-27T17:03:32.619Z,1.82
2019-01-27T17:06:01.861Z,2.22
2019-01-27T17:08:29.078Z,1.80
2019-01-27T17:10:56.276Z,1.90
2019-01-27T17:13:23.454Z,2.10
2019-01-27T17:15:50.734Z,1.62
2019-01-27T17:18:17.838Z,2.00
2019-01-27T17:20:44.837Z,3.02
2019-01-27T17:23:11.843Z,1.80
2019-01-27T17:25:38.793Z,2.35
2019-01-27T17:28:06.610Z,1.80
2019-01-27T17:30:33.757Z,2.20
2019-01-27T17:33:00.783Z,2.60
2019-01-27T17:35:27.809Z,3.25
2019-01-27T17:37:54.858Z,2.33
2019-01-27T17:40:21.997Z,1.80
2019-01-27T17:42:49.000Z,1.45
2019-01-27T17:45:16.098Z,1.60
2019-01-27T17:47:43.310Z,1.55
2019-01-27T17:50:12.880Z,1.40
2019-01-27T17:52:39.969Z,1.62
2019-01-27T17:55:08.455Z,1.92
2019-01-27T17:57:37.436Z,2.15
2019-01-27T18:00:07.168Z,1.40
2019-01-27T18:02:39.266Z,1.77
2019-01-27T18:05:09.069Z,1.60
2019-01-27T18:07:37.957Z,1.25
2019-01-27T18:10:10.013Z,1.52
2019-01-27T18:12:39.084Z,1.50
2019-01-27T18:15:07.337Z,1.10
2019-01-27T18:17:34.424Z,1.40
2019-01-27T18:20:01.479Z,1.10
2019-01-27T18:22:28.599Z,1.20
2019-01-27T18:24:55.687Z,1.10
2019-01-27T18:27:22.799Z,1.10
2019-01-27T18:29:49.917Z,1.32
2019-01-27T18:32:17.052Z,1.12
2019-01-27T18:34:44.941Z,1.30
2019-01-27T18:37:12.100Z,1.60
2019-01-27T18:39:39.265Z,1.55
2019-01-27T18:42:07.081Z,1.15
2019-01-27T18:44:34.053Z,1.20
2019-01-27T18:47:01.095Z,0.98
2019-01-27T18:49:28.122Z,1.62
2019-01-27T18:51:55.689Z,1.17
2019-01-27T18:54:36.807Z,1.12
2019-01-27T18:57:06.079Z,1.10
2019-01-27T18:59:41.310Z,1.10
2019-01-27T19:02:15.817Z,2.12
2019-01-27T19:04:47.753Z,1.10
2019-01-27T19:07:22.485Z,1.42
2019-01-27T19:09:51.779Z,1.40
2019-01-27T19:12:20.661Z,2.42
2019-01-27T19:14:49.787Z,2.30
2019-01-27T19:17:24.662Z,1.40
2019-01-27T19:19:56.598Z,2.20
2019-01-27T19:22:33.551Z,2.35
2019-01-27T19:25:02.474Z,1.98
2019-01-27T19:27:31.562Z,2.15
2019-01-27T19:30:03.169Z,2.22
2019-01-27T19:32:35.134Z,2.02
2019-01-27T19:35:13.329Z,2.10
2019-01-27T19:37:42.341Z,2.12
2019-01-27T19:40:20.506Z,2.45
2019-01-27T19:42:58.804Z,3.05
2019-01-27T19:45:27.769Z,1.50
2019-01-27T19:47:56.775Z,2.47
2019-01-27T19:50:42.649Z,1.77
2019-01-27T19:53:23.910Z,2.85
2019-01-27T19:55:58.926Z,1.37
2019-01-27T19:58:46.354Z,3.12
2019-01-27T20:01:21.258Z,1.52
2019-01-27T20:03:56.516Z,1.95
2019-01-27T20:06:25.626Z,1.98
2019-01-27T20:09:11.478Z,2.27
2019-01-27T20:11:49.689Z,1.80
2019-01-27T20:14:35.333Z,2.17
2019-01-27T20:17:07.471Z,1.20
2019-01-27T20:19:36.859Z,1.50
2019-01-27T20:22:06.146Z,2.98
2019-01-27T20:24:53.487Z,1.70
2019-01-27T20:27:25.335Z,2.10
2019-01-27T20:30:00.261Z,3.45
2019-01-27T20:32:32.196Z,3.22
2019-01-27T20:35:01.228Z,2.92
2019-01-27T20:37:30.231Z,4.22
2019-01-27T20:39:59.448Z,2.72
2019-01-27T20:42:28.784Z,2.50
2019-01-27T20:45:00.385Z,5.35
2019-01-27T20:47:32.497Z,2.75
2019-01-27T20:50:01.859Z,2.52
2019-01-27T20:52:31.255Z,3.85
2019-01-27T20:55:00.672Z,2.87
2019-01-27T20:57:29.804Z,3.72
2019-01-27T20:59:58.850Z,4.50
2019-01-27T21:02:39.923Z,2.65
2019-01-27T21:05:10.769Z,2.98
2019-01-27T21:07:45.658Z,3.55
2019-01-27T21:10:18.093Z,2.95
2019-01-27T21:12:47.377Z,2.90
2019-01-27T21:15:19.229Z,5.03
2019-01-27T21:17:54.712Z,3.77
2019-01-27T21:20:25.041Z,3.02
2019-01-27T21:22:52.257Z,6.37
2019-01-27T21:25:20.062Z,3.75
2019-01-27T21:27:47.240Z,3.35
2019-01-27T21:30:15.905Z,4.47
2019-01-27T21:32:49.331Z,3.08
2019-01-27T21:35:17.000Z,3.50
2019-01-27T21:37:44.287Z,2.70
2019-01-27T21:40:14.514Z,2.47
2019-01-27T21:42:47.430Z,4.10
2019-01-27T21:45:13.017Z,3.20
2019-01-27T21:47:39.993Z,3.87
2019-01-27T21:50:10.470Z,3.02
2019-01-27T21:52:37.901Z,2.62
2019-01-27T21:55:06.589Z,4.80
2019-01-27T21:57:33.779Z,2.45
2019-01-27T22:00:01.297Z,3.75
2019-01-27T22:02:28.232Z,3.15
2019-01-27T22:04:55.389Z,3.15
2019-01-27T22:07:22.541Z,2.35
2019-01-27T22:09:49.938Z,3.15
2019-01-27T22:12:17.131Z,3.30
2019-01-27T22:14:44.293Z,2.92
2019-01-27T22:17:13.832Z,3.30
2019-01-27T22:19:43.775Z,2.85
2019-01-27T22:22:11.781Z,3.22
2019-01-27T22:24:38.952Z,6.30
2019-01-27T22:27:06.059Z,4.33
2019-01-27T22:29:33.314Z,2.87
2019-01-27T22:32:00.635Z,3.10
2019-01-27T22:34:27.788Z,2.98
2019-01-27T22:36:55.343Z,3.12
2019-01-27T22:39:22.423Z,3.70
2019-01-27T22:41:49.319Z,7.72
2019-01-27T22:44:16.651Z,5.58
2019-01-27T22:46:45.729Z,6.75
2019-01-27T22:49:12.806Z,6.70
2019-01-27T22:51:39.822Z,3.22
2019-01-27T22:54:06.798Z,3.92
2019-01-27T22:56:33.916Z,5.60
2019-01-27T22:59:00.931Z,3.47
2019-01-27T23:01:28.064Z,3.40
2019-01-27T23:03:55.454Z,4.72
2019-01-27T23:06:22.609Z,7.45
2019-01-27T23:08:49.839Z,4.08
2019-01-27T23:11:20.462Z,3.17
2019-01-27T23:13:47.621Z,4.33
2019-01-27T23:16:17.055Z,3.15
2019-01-27T23:18:44.166Z,3.33
2019-01-27T23:21:11.837Z,7.87
2019-01-27T23:23:38.994Z,3.30
2019-01-27T23:26:06.052Z,3.60
2019-01-27T23:28:33.351Z,3.00
2019-01-27T23:31:01.781Z,5.83
2019-01-27T23:33:28.733Z,2.90
2019-01-27T23:35:55.699Z,3.50
2019-01-27T23:38:22.590Z,3.75
2019-01-27T23:40:49.477Z,3.40
2019-01-27T23:43:16.524Z,3.72
2019-01-27T23:45:43.618Z,5.40
2019-01-27T23:48:10.614Z,8.33
2019-01-27T23:50:37.846Z,5.20
2019-01-27T23:53:04.854Z,3.35
2019-01-27T23:55:31.964Z,4.42
2019-01-27T23:57:58.963Z,4.95
